createdAt,value
2019-04-26T00:02:18.529Z,13.96
2019-04-26T00:04:43.888Z,13.91
2019-04-26T00:07:10.465Z,13.87
2019-04-26T00:09:36.551Z,13.84
2019-04-26T00:12:02.855Z,13.84
2019-04-26T00:14:29.198Z,13.79
2019-04-26T00:16:55.532Z,13.78
2019-04-26T00:19:22.277Z,13.80
2019-04-26T00:21:48.193Z,13.78
2019-04-26T00:24:15.259Z,13.69
2019-04-26T00:26:40.831Z,13.59
2019-04-26T00:29:07.174Z,13.65
2019-04-26T00:31:33.509Z,13.69
2019-04-26T00:33:59.808Z,13.62
2019-04-26T00:36:26.150Z,13.55
2019-04-26T00:38:52.457Z,13.48
2019-04-26T00:41:18.794Z,13.53
2019-04-26T00:43:45.106Z,13.50
2019-04-26T00:46:13.255Z,13.46
2019-04-26T00:48:37.750Z,13.41
2019-04-26T00:51:04.091Z,13.30
2019-04-26T00:53:30.429Z,13.23
2019-04-26T00:55:56.762Z,13.13
2019-04-26T00:58:24.401Z,13.13
2019-04-26T01:00:49.503Z,13.16
2019-04-26T01:03:16.639Z,13.02
2019-04-26T01:05:42.171Z,12.87
2019-04-26T01:08:08.504Z,12.76
2019-04-26T01:10:34.895Z,12.76
2019-04-26T01:13:01.213Z,12.79
2019-04-26T01:15:27.558Z,12.81
2019-04-26T01:17:53.906Z,12.83
2019-04-26T01:20:20.396Z,12.72
2019-04-26T01:22:46.556Z,12.52
2019-04-26T01:25:12.949Z,12.37
2019-04-26T01:27:39.264Z,12.33
2019-04-26T01:30:05.703Z,12.30
2019-04-26T01:32:32.032Z,12.29
2019-04-26T01:37:42.619Z,12.32
2019-04-26T01:40:08.939Z,12.27
2019-04-26T01:42:35.374Z,12.30
2019-04-26T01:45:01.702Z,12.30
2019-04-26T01:47:28.417Z,12.26
2019-04-26T01:49:54.345Z,12.26
2019-04-26T01:52:22.367Z,12.13
2019-04-26T01:54:46.980Z,12.01
2019-04-26T01:57:13.314Z,12.06
2019-04-26T01:59:39.639Z,11.94
2019-04-26T02:02:05.958Z,11.92
2019-04-26T02:04:32.279Z,11.98
2019-04-26T02:06:58.614Z,11.97
2019-04-26T02:09:24.929Z,11.96
2019-04-26T02:11:51.259Z,12.04
2019-04-26T02:14:17.616Z,11.97
2019-04-26T02:16:43.925Z,12.00
2019-04-26T02:19:10.263Z,12.05
2019-04-26T02:21:36.575Z,12.06
2019-04-26T02:24:02.904Z,12.00
2019-04-26T02:26:30.359Z,11.88
2019-04-26T02:28:55.554Z,11.90
2019-04-26T02:31:21.892Z,11.85
2019-04-26T02:33:48.205Z,11.85
2019-04-26T02:36:14.539Z,11.77
2019-04-26T02:38:40.855Z,11.66
2019-04-26T02:41:07.203Z,11.62
2019-04-26T02:43:35.174Z,11.56
2019-04-26T02:45:59.872Z,11.61
2019-04-26T02:48:28.316Z,11.60
2019-04-26T02:50:52.467Z,11.55
2019-04-26T02:53:18.816Z,11.55
2019-04-26T02:55:45.115Z,11.51
2019-04-26T02:58:11.463Z,11.51
2019-04-26T03:00:39.107Z,11.48
2019-04-26T03:03:04.096Z,11.49
2019-04-26T03:05:31.759Z,11.46
2019-04-26T03:07:56.780Z,11.42
2019-04-26T03:10:23.073Z,11.38
2019-04-26T03:12:49.399Z,11.41
2019-04-26T03:15:15.736Z,11.48
2019-04-26T03:17:43.037Z,11.58
2019-04-26T03:20:08.388Z,11.40
2019-04-26T03:22:35.667Z,11.25
2019-04-26T03:25:01.070Z,11.23
2019-04-26T03:27:27.374Z,11.22
2019-04-26T03:30:05.011Z,11.18
2019-04-26T03:32:20.054Z,11.14
2019-04-26T03:34:52.967Z,11.15
2019-04-26T03:37:20.648Z,11.13
2019-04-26T03:39:40.834Z,11.17
2019-04-26T03:42:05.410Z,11.34
2019-04-26T03:44:33.054Z,11.44
2019-04-26T03:46:58.073Z,11.36
2019-04-26T03:49:24.385Z,11.23
2019-04-26T03:51:50.764Z,11.15
2019-04-26T03:54:17.080Z,11.12
2019-04-26T03:56:44.091Z,11.22
2019-04-26T03:59:09.715Z,11.29
2019-04-26T04:01:37.279Z,11.44
2019-04-26T04:04:02.425Z,11.52
2019-04-26T04:06:28.774Z,11.60
2019-04-26T04:08:55.062Z,11.70
2019-04-26T04:11:21.399Z,11.72
2019-04-26T04:13:50.908Z,11.69
2019-04-26T04:16:14.032Z,11.74
2019-04-26T04:18:41.766Z,11.91
2019-04-26T04:21:06.675Z,11.98
2019-04-26T04:23:32.996Z,11.96
2019-04-26T04:25:59.350Z,12.23
2019-04-26T04:28:25.696Z,12.34
2019-04-26T04:30:52.009Z,12.52
2019-04-26T04:33:18.351Z,12.68
2019-04-26T04:35:46.066Z,12.84
2019-04-26T04:38:11.011Z,12.93
2019-04-26T04:40:37.322Z,13.02
2019-04-26T04:43:03.743Z,13.06
2019-04-26T04:45:29.954Z,13.28
2019-04-26T04:47:56.271Z,13.84
2019-04-26T04:50:22.627Z,14.23
2019-04-26T04:52:50.085Z,14.62
2019-04-26T04:55:15.310Z,14.80
2019-04-26T04:57:41.943Z,14.78
2019-04-26T05:00:08.031Z,14.58
2019-04-26T05:02:34.397Z,14.63
2019-04-26T05:05:00.678Z,15.01
2019-04-26T05:07:27.012Z,15.33
2019-04-26T05:09:53.678Z,15.47
2019-04-26T05:12:19.648Z,15.31
2019-04-26T05:14:46.220Z,15.52
2019-04-26T05:17:12.311Z,16.08
2019-04-26T05:19:38.652Z,16.38
2019-04-26T05:22:04.960Z,16.57
2019-04-26T05:24:31.323Z,17.07
2019-04-26T05:26:57.650Z,17.19
2019-04-26T05:29:23.961Z,17.13
2019-04-26T05:31:51.526Z,16.72
2019-04-26T05:34:16.606Z,16.53
2019-04-26T05:36:42.920Z,16.35
2019-04-26T05:39:09.248Z,16.55
2019-04-26T05:41:35.644Z,17.06
2019-04-26T05:44:01.972Z,17.50
2019-04-26T05:46:28.304Z,17.76
2019-04-26T05:48:55.646Z,17.69
2019-04-26T05:51:21.017Z,17.61
2019-04-26T05:53:48.508Z,17.90
2019-04-26T05:56:13.999Z,18.26
2019-04-26T05:58:40.328Z,18.60
2019-04-26T06:01:06.657Z,18.61
2019-04-26T06:03:32.969Z,18.94
2019-04-26T06:05:59.288Z,18.78
2019-04-26T06:08:31.320Z,18.62
2019-04-26T06:10:53.057Z,18.30
2019-04-26T06:13:18.306Z,18.54
2019-04-26T06:15:44.614Z,18.47
2019-04-26T06:18:10.963Z,18.71
2019-04-26T06:20:37.274Z,18.52
2019-04-26T06:23:03.613Z,18.73
2019-04-26T06:25:29.945Z,19.30
2019-04-26T06:27:56.314Z,19.72
2019-04-26T06:30:22.604Z,19.72
2019-04-26T06:32:56.407Z,19.96
2019-04-26T06:35:15.248Z,20.27
2019-04-26T06:37:41.554Z,20.16
2019-04-26T06:40:07.889Z,20.10
2019-04-26T06:42:34.192Z,20.42
2019-04-26T06:45:00.503Z,20.35
2019-04-26T06:47:26.835Z,20.64
2019-04-26T06:49:53.136Z,21.02
2019-04-26T06:52:19.485Z,21.23
2019-04-26T06:54:45.813Z,21.02
2019-04-26T06:57:14.959Z,20.82
2019-04-26T06:59:38.470Z,20.71
2019-04-26T07:02:04.819Z,21.06
2019-04-26T07:04:31.171Z,21.00
2019-04-26T07:06:58.227Z,21.15
2019-04-26T07:09:23.799Z,21.73
2019-04-26T07:11:50.153Z,21.98
2019-04-26T07:14:16.481Z,22.32
2019-04-26T07:16:42.816Z,22.38
2019-04-26T07:19:09.127Z,22.86
2019-04-26T07:21:35.476Z,22.96
2019-04-26T07:24:02.874Z,22.59
2019-04-26T07:26:28.136Z,22.43
2019-04-26T07:28:54.484Z,22.72
2019-04-26T07:31:20.818Z,22.42
2019-04-26T07:33:47.153Z,21.84
2019-04-26T07:36:13.483Z,22.31
2019-04-26T07:38:39.991Z,22.57
2019-04-26T07:41:09.353Z,22.77
2019-04-26T07:43:35.768Z,23.26
2019-04-26T07:46:02.912Z,22.96
2019-04-26T07:48:28.494Z,23.25
2019-04-26T07:50:54.826Z,23.18
2019-04-26T07:53:21.138Z,23.21
2019-04-26T07:55:47.469Z,23.36
2019-04-26T07:58:13.802Z,23.66
2019-04-26T08:00:46.104Z,23.51
2019-04-26T08:03:13.028Z,23.19
2019-04-26T08:05:38.745Z,23.50
2019-04-26T08:08:05.856Z,23.61
2019-04-26T08:10:31.432Z,23.80
2019-04-26T08:12:57.731Z,23.81
2019-04-26T08:15:25.100Z,23.98
2019-04-26T08:17:50.454Z,24.31
2019-04-26T08:20:16.737Z,24.15
2019-04-26T08:22:43.068Z,23.75
2019-04-26T08:25:12.455Z,23.88
2019-04-26T08:27:38.080Z,24.19
2019-04-26T08:30:10.522Z,24.73
2019-04-26T08:32:32.162Z,24.76
2019-04-26T08:35:02.263Z,24.51
2019-04-26T08:37:26.789Z,25.08
2019-04-26T08:39:53.223Z,25.20
2019-04-26T08:42:23.832Z,25.03
2019-04-26T08:44:45.986Z,25.38
2019-04-26T08:47:16.744Z,25.20
2019-04-26T08:49:39.161Z,25.20
2019-04-26T08:52:13.948Z,25.44
2019-04-26T08:54:32.645Z,25.64
2019-04-26T08:56:57.641Z,25.69
2019-04-26T08:59:23.968Z,25.79
2019-04-26T09:01:50.290Z,25.78
2019-04-26T09:04:16.599Z,26.33
2019-04-26T09:06:42.934Z,27.08
2019-04-26T09:09:09.249Z,26.97
2019-04-26T09:11:35.582Z,26.63
2019-04-26T09:14:01.895Z,26.52
2019-04-26T09:16:28.221Z,26.88
2019-04-26T09:18:59.393Z,27.27
2019-04-26T09:21:20.841Z,27.08
2019-04-26T09:23:50.856Z,26.87
2019-04-26T09:26:13.697Z,26.77
2019-04-26T09:28:39.813Z,27.11
2019-04-26T09:31:06.283Z,27.45
2019-04-26T09:33:35.942Z,27.36
2019-04-26T09:35:59.041Z,27.34
2019-04-26T09:38:25.366Z,27.57
2019-04-26T09:40:52.647Z,27.68
2019-04-26T09:43:18.125Z,27.85
2019-04-26T09:45:44.507Z,27.99
2019-04-26T09:48:10.921Z,28.09
2019-04-26T09:50:37.223Z,27.87
2019-04-26T09:53:03.556Z,28.12
2019-04-26T09:55:35.541Z,28.03
2019-04-26T09:57:57.312Z,28.14
2019-04-26T10:00:23.268Z,27.63
2019-04-26T10:02:49.593Z,28.23
2019-04-26T10:05:17.662Z,28.39
2019-04-26T10:07:42.237Z,28.68
2019-04-26T10:10:08.560Z,29.16
2019-04-26T10:12:34.902Z,29.72
2019-04-26T10:15:01.218Z,29.82
2019-04-26T10:17:27.561Z,30.30
2019-04-26T10:19:53.905Z,29.90
2019-04-26T10:22:20.210Z,29.52
2019-04-26T10:24:46.546Z,29.85
2019-04-26T10:27:12.867Z,29.50
2019-04-26T10:29:39.190Z,29.26
2019-04-26T10:32:05.509Z,29.22
2019-04-26T10:34:31.831Z,29.25
2019-04-26T10:37:01.486Z,29.04
2019-04-26T10:39:24.453Z,29.03
2019-04-26T10:41:50.786Z,28.94
2019-04-26T10:44:17.082Z,29.22
2019-04-26T10:46:55.018Z,29.50
2019-04-26T10:49:12.053Z,29.49
2019-04-26T10:51:38.612Z,29.78
2019-04-26T10:54:05.914Z,29.54
2019-04-26T10:56:28.681Z,29.34
2019-04-26T10:58:55.000Z,28.88
2019-04-26T11:01:21.335Z,29.00
2019-04-26T11:03:47.680Z,29.54
2019-04-26T11:06:14.011Z,29.87
2019-04-26T11:08:40.310Z,29.78
2019-04-26T11:11:06.639Z,29.54
2019-04-26T11:13:32.939Z,29.24
2019-04-26T11:16:02.522Z,29.67
2019-04-26T11:18:27.441Z,29.77
2019-04-26T11:20:51.896Z,29.76
2019-04-26T11:23:18.224Z,30.22
2019-04-26T11:25:44.550Z,30.55
2019-04-26T11:28:10.872Z,30.77
2019-04-26T11:30:37.178Z,30.69
2019-04-26T11:33:03.519Z,30.73
2019-04-26T11:35:33.169Z,31.11
2019-04-26T11:37:56.982Z,30.90
2019-04-26T11:40:22.500Z,31.33
2019-04-26T11:42:48.777Z,31.36
2019-04-26T11:45:16.184Z,31.11
2019-04-26T11:47:54.569Z,31.11
2019-04-26T11:50:08.061Z,30.75
2019-04-26T11:52:36.038Z,30.48
2019-04-26T11:55:00.662Z,30.70
2019-04-26T11:57:26.981Z,30.37
2019-04-26T11:59:53.297Z,30.25
2019-04-26T12:02:19.636Z,29.59
2019-04-26T12:04:49.516Z,28.67
2019-04-26T12:07:12.261Z,28.53
2019-04-26T12:09:38.583Z,28.81
2019-04-26T12:12:05.406Z,29.21
2019-04-26T12:14:33.491Z,29.39
2019-04-26T12:16:59.590Z,29.54
2019-04-26T12:19:23.862Z,29.65
2019-04-26T12:21:50.200Z,29.42
2019-04-26T12:24:16.501Z,29.17
2019-04-26T12:26:46.172Z,28.98
2019-04-26T12:29:10.524Z,29.17
2019-04-26T12:31:35.488Z,29.03
2019-04-26T12:34:01.794Z,29.21
2019-04-26T12:36:28.095Z,29.10
2019-04-26T12:38:54.426Z,28.97
2019-04-26T12:41:30.042Z,28.63
2019-04-26T12:43:47.060Z,28.53
2019-04-26T12:46:14.319Z,28.78
2019-04-26T12:48:39.696Z,28.91
2019-04-26T12:51:08.222Z,28.99
2019-04-26T12:53:33.004Z,28.99
2019-04-26T12:55:58.658Z,28.69
2019-04-26T12:58:24.993Z,28.44
2019-04-26T13:00:54.303Z,28.18
2019-04-26T13:03:20.484Z,28.18
2019-04-26T13:05:43.979Z,28.06
2019-04-26T13:08:13.070Z,27.95
2019-04-26T13:10:36.942Z,27.86
2019-04-26T13:13:02.888Z,27.52
2019-04-26T13:15:29.209Z,27.51
2019-04-26T13:17:55.537Z,27.22
2019-04-26T13:20:24.264Z,27.07
2019-04-26T13:22:50.207Z,27.26
2019-04-26T13:25:17.420Z,27.60
2019-04-26T13:27:41.569Z,27.81
2019-04-26T13:30:10.615Z,27.65
2019-04-26T13:32:33.542Z,27.78
2019-04-26T13:34:59.850Z,27.87
2019-04-26T13:37:26.184Z,27.81
2019-04-26T13:39:55.300Z,27.77
2019-04-26T13:42:18.851Z,27.84
2019-04-26T13:44:45.153Z,27.67
2019-04-26T13:47:11.483Z,27.46
2019-04-26T13:49:37.789Z,27.14
2019-04-26T13:52:04.111Z,26.98
2019-04-26T13:54:30.434Z,26.80
2019-04-26T13:56:56.740Z,26.92
2019-04-26T13:59:23.096Z,27.07
2019-04-26T14:01:49.407Z,26.86
2019-04-26T14:04:15.771Z,27.01
2019-04-26T14:06:42.052Z,27.16
2019-04-26T14:09:08.377Z,27.08
2019-04-26T14:11:34.684Z,27.10
2019-04-26T14:14:01.843Z,26.84
2019-04-26T14:16:27.587Z,26.60
2019-04-26T14:18:53.674Z,26.53
2019-04-26T14:21:19.970Z,26.58
2019-04-26T14:23:49.477Z,26.68
2019-04-26T14:26:12.664Z,26.66
2019-04-26T14:28:41.809Z,26.76
2019-04-26T14:31:05.335Z,26.70
2019-04-26T14:33:32.284Z,26.69
2019-04-26T14:35:57.946Z,26.70
2019-04-26T14:38:28.115Z,26.60
2019-04-26T14:41:03.227Z,26.73
2019-04-26T14:43:18.247Z,26.61
2019-04-26T14:45:55.397Z,26.57
2019-04-26T14:48:20.093Z,26.71
2019-04-26T14:50:35.940Z,26.64
2019-04-26T14:53:03.446Z,26.55
2019-04-26T14:55:28.597Z,26.61
2019-04-26T14:57:54.935Z,26.72
2019-04-26T15:00:22.271Z,26.79
2019-04-26T15:02:48.494Z,26.72
2019-04-26T15:05:13.899Z,26.55
2019-04-26T15:07:49.415Z,26.51
2019-04-26T15:10:06.915Z,26.50
2019-04-26T15:12:45.676Z,26.62
2019-04-26T15:14:59.181Z,26.52
2019-04-26T15:17:26.605Z,26.47
2019-04-26T15:19:51.818Z,26.34
2019-04-26T15:22:18.143Z,26.37
2019-04-26T15:24:44.443Z,26.36
2019-04-26T15:27:10.792Z,26.42
2019-04-26T15:29:37.106Z,26.47
2019-04-26T15:32:05.313Z,26.43
2019-04-26T15:34:29.739Z,26.33
2019-04-26T15:36:56.042Z,26.21
2019-04-26T15:39:23.201Z,26.05
2019-04-26T15:41:51.233Z,25.95
2019-04-26T15:44:15.033Z,25.97
2019-04-26T15:46:42.563Z,25.96
2019-04-26T15:49:09.550Z,25.94
2019-04-26T15:51:33.992Z,25.90
2019-04-26T15:54:00.297Z,25.85
2019-04-26T15:56:26.626Z,25.83
2019-04-26T15:58:52.974Z,25.81
2019-04-26T16:01:19.288Z,25.82
2019-04-26T16:03:45.620Z,25.74
2019-04-26T16:06:12.649Z,25.57
2019-04-26T16:08:42.675Z,25.41
2019-04-26T16:11:07.213Z,25.24
2019-04-26T16:13:32.280Z,25.11
2019-04-26T16:15:57.239Z,25.07
2019-04-26T16:18:23.542Z,25.03
2019-04-26T16:20:49.875Z,24.97
2019-04-26T16:23:16.203Z,24.93
2019-04-26T16:25:42.899Z,24.87
2019-04-26T16:28:09.367Z,24.78
2019-04-26T16:30:37.515Z,24.65
2019-04-26T16:33:02.708Z,24.57
2019-04-26T16:35:28.290Z,24.52
2019-04-26T16:37:54.131Z,24.46
2019-04-26T16:40:20.451Z,24.37
2019-04-26T16:42:49.695Z,24.31
2019-04-26T16:45:13.098Z,24.23
2019-04-26T16:47:45.175Z,24.15
2019-04-26T16:50:05.756Z,24.08
2019-04-26T16:52:33.714Z,23.99
2019-04-26T16:55:02.799Z,23.94
2019-04-26T16:57:26.425Z,23.88
2019-04-26T16:59:57.578Z,23.71
2019-04-26T17:02:25.675Z,23.48
2019-04-26T17:04:45.310Z,23.34
2019-04-26T17:07:13.286Z,23.24
2019-04-26T17:09:57.046Z,23.20
2019-04-26T17:12:04.289Z,23.23
2019-04-26T17:14:33.767Z,23.22
2019-04-26T17:16:56.917Z,23.09
2019-04-26T17:19:23.245Z,22.90
2019-04-26T17:21:49.548Z,22.78
2019-04-26T17:24:15.880Z,22.64
2019-04-26T17:26:42.808Z,22.55
2019-04-26T17:29:08.561Z,22.44
2019-04-26T17:31:34.830Z,22.25
2019-04-26T17:34:01.146Z,22.10
2019-04-26T17:36:27.466Z,21.99
2019-04-26T17:38:53.768Z,21.91
2019-04-26T17:41:20.104Z,21.85
2019-04-26T17:43:48.258Z,21.77
2019-04-26T17:46:18.347Z,21.69
2019-04-26T17:48:44.865Z,21.61
2019-04-26T17:51:12.135Z,21.57
2019-04-26T17:53:34.360Z,21.50
2019-04-26T17:56:00.778Z,21.41
2019-04-26T17:58:30.989Z,21.32
2019-04-26T18:00:56.365Z,21.23
2019-04-26T18:03:21.337Z,21.11
2019-04-26T18:05:56.788Z,21.02
2019-04-26T18:08:33.200Z,20.94
2019-04-26T18:10:41.332Z,20.90
2019-04-26T18:13:04.959Z,20.79
2019-04-26T18:15:31.288Z,20.72
2019-04-26T18:17:57.588Z,20.66
2019-04-26T18:20:23.921Z,20.60
2019-04-26T18:22:50.224Z,20.57
2019-04-26T18:25:16.545Z,20.52
2019-04-26T18:27:43.506Z,20.45
2019-04-26T18:30:13.554Z,20.36
2019-04-26T18:32:41.987Z,20.34
2019-04-26T18:35:01.850Z,20.33
2019-04-26T18:37:28.168Z,20.29
2019-04-26T18:39:57.367Z,20.27
2019-04-26T18:42:20.811Z,20.19
2019-04-26T18:44:47.911Z,20.17
2019-04-26T18:47:14.784Z,20.13
2019-04-26T18:49:39.765Z,20.10
2019-04-26T18:52:08.805Z,20.07
2019-04-26T18:54:32.881Z,20.07
2019-04-26T18:56:58.775Z,20.07
2019-04-26T18:59:27.707Z,20.05
2019-04-26T19:01:51.406Z,20.08
2019-04-26T19:04:17.724Z,20.10
2019-04-26T19:06:44.084Z,20.12
2019-04-26T19:09:12.107Z,20.15
2019-04-26T19:11:36.656Z,20.18
2019-04-26T19:14:06.373Z,20.24
2019-04-26T19:16:29.285Z,20.28
2019-04-26T19:18:55.662Z,20.29
2019-04-26T19:21:21.985Z,20.26
2019-04-26T19:23:48.301Z,20.27
2019-04-26T19:26:15.190Z,20.24
2019-04-26T19:28:42.937Z,20.27
2019-04-26T19:31:07.258Z,20.23
2019-04-26T19:33:33.557Z,20.24
2019-04-26T19:35:59.894Z,20.22
2019-04-26T19:38:26.196Z,20.15
2019-04-26T19:40:52.586Z,20.06
2019-04-26T19:43:30.152Z,19.98
2019-04-26T19:45:47.007Z,19.92
2019-04-26T19:48:15.825Z,19.88
2019-04-26T19:50:42.333Z,19.86
2019-04-26T19:53:04.221Z,19.79
2019-04-26T19:55:31.864Z,19.71
2019-04-26T19:57:56.823Z,19.61
2019-04-26T20:00:23.158Z,19.51
2019-04-26T20:02:49.466Z,19.47
2019-04-26T20:05:17.334Z,19.40
2019-04-26T20:07:42.130Z,19.30
2019-04-26T20:10:08.432Z,19.21
2019-04-26T20:12:37.928Z,19.11
2019-04-26T20:15:02.305Z,19.04
2019-04-26T20:17:27.422Z,18.96
2019-04-26T20:19:54.459Z,18.90
2019-04-26T20:22:26.053Z,18.84
2019-04-26T20:24:48.547Z,18.77
2019-04-26T20:27:19.508Z,18.73
2019-04-26T20:29:40.836Z,18.66
2019-04-26T20:32:05.345Z,18.58
2019-04-26T20:34:32.142Z,18.52
2019-04-26T20:36:58.012Z,18.44
2019-04-26T20:39:24.317Z,18.38
2019-04-26T20:42:00.705Z,18.35
2019-04-26T20:44:16.977Z,18.31
2019-04-26T20:46:43.285Z,18.30
2019-04-26T20:49:11.235Z,18.26
2019-04-26T20:51:35.937Z,18.25
2019-04-26T20:54:03.905Z,18.20
2019-04-26T20:56:28.574Z,18.15
2019-04-26T20:58:57.453Z,18.09
2019-04-26T21:01:22.379Z,18.04
2019-04-26T21:03:47.526Z,17.99
2019-04-26T21:06:13.869Z,17.96
2019-04-26T21:08:42.101Z,17.94
2019-04-26T21:11:06.511Z,17.90
2019-04-26T21:13:32.846Z,17.89
2019-04-26T21:16:03.525Z,17.86
2019-04-26T21:18:25.483Z,17.83
2019-04-26T21:20:52.159Z,17.78
2019-04-26T21:23:18.112Z,17.75
2019-04-26T21:25:44.447Z,17.72
2019-04-26T21:28:11.584Z,17.67
2019-04-26T21:30:38.565Z,17.64
2019-04-26T21:33:03.419Z,17.63
2019-04-26T21:35:29.750Z,17.64
2019-04-26T21:37:56.555Z,17.64
2019-04-26T21:40:24.855Z,17.64
2019-04-26T21:42:48.725Z,17.62
2019-04-26T21:45:15.034Z,17.57
2019-04-26T21:47:43.371Z,17.52
2019-04-26T21:50:07.678Z,17.49
2019-04-26T21:52:34.352Z,17.48
2019-04-26T21:55:00.342Z,17.45
2019-04-26T21:57:28.255Z,17.44
2019-04-26T21:59:54.024Z,17.41
2019-04-26T22:02:19.310Z,17.38
2019-04-26T22:04:45.660Z,17.33
2019-04-26T22:07:11.963Z,17.28
2019-04-26T22:09:38.292Z,17.24
2019-04-26T22:12:04.601Z,17.22
2019-04-26T22:14:30.959Z,17.18
2019-04-26T22:16:57.671Z,17.14
2019-04-26T22:19:23.912Z,17.09
2019-04-26T22:21:49.933Z,17.05
2019-04-26T22:24:16.240Z,17.05
2019-04-26T22:26:47.682Z,17.02
2019-04-26T22:29:14.224Z,16.97
2019-04-26T22:31:37.990Z,16.94
2019-04-26T22:34:07.267Z,16.93
2019-04-26T22:36:30.799Z,16.92
2019-04-26T22:38:55.644Z,16.89
2019-04-26T22:41:20.536Z,16.85
2019-04-26T22:43:49.623Z,16.80
2019-04-26T22:46:14.117Z,16.77
2019-04-26T22:48:39.451Z,16.73
2019-04-26T22:51:05.789Z,16.70
2019-04-26T22:53:32.825Z,16.63
2019-04-26T22:56:01.343Z,16.58
2019-04-26T22:58:28.570Z,16.55
2019-04-26T23:00:51.069Z,16.54
2019-04-26T23:03:17.740Z,16.49
2019-04-26T23:05:44.014Z,16.46
2019-04-26T23:08:10.341Z,16.46
2019-04-26T23:13:13.240Z,16.46
2019-04-26T23:15:38.249Z,16.45
2019-04-26T23:18:08.216Z,16.43
2019-04-26T23:20:34.383Z,16.41
2019-04-26T23:23:00.422Z,16.42
2019-04-26T23:25:27.766Z,16.45
2019-04-26T23:27:54.413Z,16.44
2019-04-26T23:30:16.745Z,16.39
2019-04-26T23:32:43.474Z,16.42
2019-04-26T23:35:09.392Z,16.42
2019-04-26T23:37:35.724Z,16.40
2019-04-26T23:40:03.834Z,16.35
2019-04-26T23:42:28.352Z,16.31
2019-04-26T23:44:54.678Z,16.26
2019-04-26T23:47:23.235Z,16.21
2019-04-26T23:49:49.327Z,16.28
2019-04-26T23:52:14.481Z,16.27
2019-04-26T23:54:41.675Z,16.32
2019-04-26T23:57:08.404Z,16.50
2019-04-26T23:59:45.315Z,16.46
